Time;durP1;ratioP1;P1;durP2;ratioP2;P2;SDS_P1;SDS_P2;PMS_P1;PMS_P2;Temp;Humidity;BMP_temperature;BMP_pressure;BME280_temperature;BME280_humidity;BME280_pressure;Samples;Min_cycle;Max_cycle;Signal;HPM_P1;HPM_P2
2021/10/12 00:01:34;;;;;;;16.03;10.10;;;8.80;99.90;;;;;;6256715;28;20467;-65
2021/10/12 00:04:38;;;;;;;11.33;9.07;;;8.80;99.90;;;;;;6264150;28;20490;-65
2021/10/12 00:07:46;;;;;;;7.90;7.00;;;8.80;99.90;;;;;;6257054;28;20466;-64
2021/10/12 00:10:49;;;;;;;10.60;7.40;;;8.80;99.90;;;;;;6255296;28;20978;-64
2021/10/12 00:13:52;;;;;;;7.50;6.70;;;8.70;99.90;;;;;;6261691;28;20481;-65
2021/10/12 00:16:55;;;;;;;9.70;6.80;;;8.60;99.90;;;;;;6266311;28;20470;-64
2021/10/12 00:19:58;;;;;;;7.40;6.63;;;8.50;99.90;;;;;;6272976;28;20470;-64
2021/10/12 00:23:05;;;;;;;7.30;6.60;;;8.50;99.90;;;;;;6275304;28;20787;-64
2021/10/12 00:26:09;;;;;;;7.17;6.17;;;8.50;99.90;;;;;;6275476;28;20496;-64
2021/10/12 00:29:12;;;;;;;7.63;6.93;;;8.50;99.90;;;;;;6275382;28;20925;-64
2021/10/12 00:32:15;;;;;;;7.07;6.33;;;8.50;99.90;;;;;;6275454;28;20482;-65
2021/10/12 00:35:18;;;;;;;7.70;6.63;;;8.40;99.90;;;;;;6275427;28;20469;-65
2021/10/12 00:38:24;;;;;;;7.50;6.10;;;8.50;99.90;;;;;;6275123;28;20830;-64
2021/10/12 00:41:27;;;;;;;6.87;6.17;;;8.50;99.90;;;;;;6275214;28;20960;-64
2021/10/12 00:44:31;;;;;;;7.17;6.03;;;8.50;99.90;;;;;;6274772;28;20800;-64
2021/10/12 00:47:34;;;;;;;8.17;7.10;;;8.50;99.90;;;;;;6275105;28;20480;-64
2021/10/12 00:50:39;;;;;;;8.50;7.50;;;8.50;99.90;;;;;;6274681;28;20486;-64
2021/10/12 00:53:43;;;;;;;11.97;7.77;;;8.50;99.90;;;;;;6275497;28;20961;-65
2021/10/12 00:56:47;;;;;;;8.37;7.30;;;8.50;99.90;;;;;;6274875;28;20549;-64
2021/10/12 00:59:51;;;;;;;8.13;6.57;;;8.60;99.90;;;;;;6275542;28;20579;-65
2021/10/12 01:02:54;;;;;;;7.47;6.77;;;8.50;99.90;;;;;;6266102;28;20482;-65
2021/10/12 01:05:58;;;;;;;6.77;6.07;;;8.50;99.90;;;;;;6261787;28;20470;-65
2021/10/12 01:09:03;;;;;;;8.37;5.50;;;8.40;99.90;;;;;;6266329;28;20474;-65
2021/10/12 01:12:06;;;;;;;5.77;5.00;;;8.40;99.90;;;;;;6259198;28;20475;-65
2021/10/12 01:15:11;;;;;;;6.73;5.20;;;8.30;99.90;;;;;;6256922;28;20475;-65
2021/10/12 01:18:15;;;;;;;5.20;4.70;;;8.20;99.90;;;;;;6260106;28;20853;-64
2021/10/12 01:21:19;;;;;;;6.73;6.17;;;8.30;99.90;;;;;;6257097;28;20811;-65
2021/10/12 01:24:22;;;;;;;6.90;5.30;;;8.30;99.90;;;;;;6274730;28;20481;-64
2021/10/12 01:27:25;;;;;;;7.30;5.20;;;8.40;99.90;;;;;;6274870;28;20470;-64
2021/10/12 01:30:29;;;;;;;5.63;5.10;;;8.50;99.90;;;;;;6274197;28;20987;-65
2021/10/12 01:33:32;;;;;;;4.80;4.40;;;8.50;99.90;;;;;;6276150;28;20478;-65
2021/10/12 01:36:36;;;;;;;7.13;4.50;;;8.50;99.90;;;;;;6279477;28;20478;-65
2021/10/12 01:39:40;;;;;;;5.57;5.07;;;8.60;99.90;;;;;;6279137;28;20473;-65
2021/10/12 01:42:43;;;;;;;7.30;5.03;;;8.60;99.90;;;;;;6279194;28;20946;-64
2021/10/12 01:45:46;;;;;;;7.30;5.20;;;8.60;99.90;;;;;;6279004;28;20481;-65
2021/10/12 01:48:49;;;;;;;5.77;5.13;;;8.70;99.90;;;;;;6279358;28;20958;-65
2021/10/12 01:51:53;;;;;;;5.57;5.07;;;8.80;99.90;;;;;;6278550;28;20481;-65
2021/10/12 01:54:57;;;;;;;7.23;5.60;;;8.80;99.90;;;;;;6279035;28;20815;-65
2021/10/12 01:58:00;;;;;;;7.77;5.30;;;8.80;99.90;;;;;;6279019;28;20492;-65
2021/10/12 02:01:03;;;;;;;12.13;4.90;;;8.80;99.90;;;;;;6279021;28;20810;-65
2021/10/12 02:04:07;;;;;;;6.57;5.90;;;8.80;99.90;;;;;;6278688;28;20461;-66
2021/10/12 02:07:11;;;;;;;5.67;5.13;;;8.70;99.90;;;;;;6278858;28;20461;-65
2021/10/12 02:10:14;;;;;;;10.00;7.03;;;8.70;99.90;;;;;;6278537;28;20985;-65
2021/10/12 02:13:17;;;;;;;6.63;5.97;;;8.60;99.90;;;;;;6278391;28;20970;-66
2021/10/12 02:16:21;;;;;;;6.30;5.70;;;8.50;99.90;;;;;;6278015;28;20815;-66
2021/10/12 02:19:24;;;;;;;6.53;5.60;;;8.50;99.90;;;;;;6278155;28;20810;-65
2021/10/12 02:22:28;;;;;;;7.20;6.00;;;8.40;99.90;;;;;;6278371;28;20477;-65
2021/10/12 02:25:31;;;;;;;6.00;5.50;;;8.40;99.90;;;;;;6273371;28;20478;-66
2021/10/12 02:28:35;;;;;;;6.80;5.80;;;8.40;99.90;;;;;;6278038;28;20469;-66
2021/10/12 02:31:38;;;;;;;5.87;5.20;;;8.20;99.90;;;;;;6277366;28;20477;-66
2021/10/12 02:34:41;;;;;;;11.03;6.40;;;8.10;99.90;;;;;;6278253;28;20481;-66
2021/10/12 02:37:46;;;;;;;6.00;5.37;;;8.10;99.90;;;;;;6278131;28;20470;-65
2021/10/12 02:40:51;;;;;;;7.23;5.57;;;8.10;99.90;;;;;;6277582;28;20470;-65
2021/10/12 02:43:55;;;;;;;7.03;6.20;;;8.10;99.90;;;;;;6277573;28;20486;-65
2021/10/12 02:46:58;;;;;;;10.60;7.50;;;7.90;99.90;;;;;;6277047;28;20512;-65
2021/10/12 02:50:01;;;;;;;6.17;5.50;;;7.80;99.90;;;;;;6277853;28;20446;-65
2021/10/12 02:53:06;;;;;;;6.67;6.07;;;7.80;99.90;;;;;;6277608;28;20473;-65
2021/10/12 02:56:09;;;;;;;6.20;5.50;;;7.90;99.90;;;;;;6277706;28;20435;-65
2021/10/12 02:59:12;;;;;;;4.83;4.47;;;7.90;99.90;;;;;;6277514;28;20442;-65
2021/10/12 03:02:16;;;;;;;8.33;5.20;;;7.90;99.90;;;;;;6277233;28;20470;-65
2021/10/12 03:05:19;;;;;;;5.20;4.03;;;8.00;99.90;;;;;;6277340;28;20469;-65
2021/10/12 03:08:23;;;;;;;5.47;4.97;;;8.00;99.90;;;;;;6276962;28;20775;-66
2021/10/12 03:11:27;;;;;;;5.00;4.60;;;8.00;99.90;;;;;;6277034;28;20470;-65
2021/10/12 03:14:30;;;;;;;6.53;4.57;;;8.00;99.90;;;;;;6277084;28;20470;-65
2021/10/12 03:17:33;;;;;;;5.77;4.17;;;8.10;99.90;;;;;;6276695;28;20462;-65
2021/10/12 03:20:36;;;;;;;5.30;4.80;;;8.10;99.90;;;;;;6276581;28;20484;-65
2021/10/12 03:23:41;;;;;;;5.30;4.80;;;8.10;99.90;;;;;;6276484;28;20469;-66
2021/10/12 03:26:44;;;;;;;4.90;4.40;;;8.10;99.90;;;;;;6277268;28;20493;-65
2021/10/12 03:29:47;;;;;;;5.17;4.63;;;8.10;99.90;;;;;;6267574;28;20817;-66
2021/10/12 03:32:50;;;;;;;5.27;4.27;;;8.10;99.90;;;;;;6276800;28;20488;-65
2021/10/12 03:35:56;;;;;;;9.60;5.20;;;8.00;99.90;;;;;;6276402;28;20474;-66
2021/10/12 03:39:00;;;;;;;6.53;5.00;;;8.00;99.90;;;;;;6276403;28;20469;-66
2021/10/12 03:42:04;;;;;;;7.00;4.27;;;7.90;99.90;;;;;;6276306;28;20474;-65
2021/10/12 03:45:08;;;;;;;5.63;4.97;;;7.90;99.90;;;;;;6276120;28;20463;-65
2021/10/12 03:48:12;;;;;;;6.10;4.73;;;7.80;99.90;;;;;;6276144;28;20469;-65
2021/10/12 03:51:15;;;;;;;6.37;4.77;;;7.70;99.90;;;;;;6276207;28;20486;-65
2021/10/12 03:54:19;;;;;;;5.80;5.20;;;7.70;99.90;;;;;;6275839;28;20486;-65
2021/10/12 03:57:22;;;;;;;5.10;4.60;;;7.70;99.90;;;;;;6275642;28;20477;-65
2021/10/12 04:00:26;;;;;;;6.23;4.67;;;7.70;99.90;;;;;;6275796;28;20511;-64
2021/10/12 04:03:29;;;;;;;7.77;5.67;;;7.80;99.90;;;;;;6276007;28;20478;-66
2021/10/12 04:06:32;;;;;;;7.97;5.80;;;7.80;99.90;;;;;;6275694;28;20545;-65
2021/10/12 04:09:37;;;;;;;6.50;5.80;;;7.90;99.90;;;;;;6275758;28;20480;-65
2021/10/12 04:12:40;;;;;;;10.90;6.37;;;7.90;99.90;;;;;;6275528;28;20954;-65
2021/10/12 04:15:43;;;;;;;7.93;6.23;;;7.90;99.90;;;;;;6275496;28;20977;-65
2021/10/12 04:18:46;;;;;;;6.93;6.03;;;7.90;99.90;;;;;;6275845;28;20557;-65
2021/10/12 04:21:50;;;;;;;9.87;6.07;;;7.90;99.90;;;;;;6275106;28;20488;-65
2021/10/12 04:24:54;;;;;;;6.70;5.90;;;7.90;99.90;;;;;;6275386;28;20478;-65
2021/10/12 04:27:58;;;;;;;6.87;6.17;;;7.90;99.90;;;;;;6275119;28;20807;-66
2021/10/12 04:31:01;;;;;;;8.00;6.37;;;7.80;99.90;;;;;;6274828;28;20818;-65
2021/10/12 04:34:05;;;;;;;6.90;5.60;;;7.90;99.90;;;;;;6270138;28;20482;-65
2021/10/12 04:37:08;;;;;;;7.87;6.37;;;8.00;99.90;;;;;;6274776;28;20486;-65
2021/10/12 04:40:13;;;;;;;6.83;5.73;;;8.10;99.90;;;;;;6275498;28;20474;-64
2021/10/12 04:43:21;;;;;;;9.03;6.33;;;8.10;99.90;;;;;;6275239;28;20998;-65
2021/10/12 04:46:24;;;;;;;6.67;6.07;;;8.20;99.90;;;;;;6274995;28;20473;-65
2021/10/12 04:49:27;;;;;;;6.43;5.53;;;8.20;99.90;;;;;;6274733;28;20620;-65
2021/10/12 04:52:30;;;;;;;7.63;4.70;;;8.30;99.90;;;;;;6275142;28;20469;-65
2021/10/12 04:55:37;;;;;;;5.30;4.67;;;8.30;99.90;;;;;;6274890;28;20493;-65
2021/10/12 04:58:40;;;;;;;7.13;4.50;;;8.40;99.90;;;;;;6274890;28;20473;-65
2021/10/12 05:01:43;;;;;;;6.43;5.20;;;8.40;99.90;;;;;;6274949;28;20866;-65
2021/10/12 05:04:46;;;;;;;6.73;4.87;;;8.30;99.90;;;;;;6274442;28;20473;-65
2021/10/12 05:07:50;;;;;;;7.10;4.93;;;8.20;99.90;;;;;;6275014;28;20974;-65
2021/10/12 05:10:54;;;;;;;5.40;4.43;;;8.20;99.90;;;;;;6279778;28;20485;-65
2021/10/12 05:13:58;;;;;;;6.03;4.73;;;8.10;99.90;;;;;;6279977;28;20474;-65
2021/10/12 05:17:03;;;;;;;5.23;4.60;;;8.00;99.90;;;;;;6279278;28;20454;-65
2021/10/12 05:20:07;;;;;;;5.90;4.87;;;7.90;99.90;;;;;;6279999;28;20433;-66
2021/10/12 05:23:11;;;;;;;5.67;4.77;;;7.90;99.90;;;;;;6259335;28;20449;-66
2021/10/12 05:26:15;;;;;;;10.77;5.10;;;7.90;99.90;;;;;;6268389;28;20441;-65
2021/10/12 05:29:18;;;;;;;5.27;4.80;;;7.90;99.90;;;;;;6261690;28;20487;-65
2021/10/12 05:32:21;;;;;;;7.90;6.37;;;7.90;99.90;;;;;;6246637;28;20475;-65
2021/10/12 05:35:25;;;;;;;8.80;6.50;;;7.90;99.90;;;;;;6228774;28;21046;-66
2021/10/12 05:38:28;;;;;;;8.27;5.67;;;7.90;99.90;;;;;;6247719;28;20470;-65
2021/10/12 05:41:33;;;;;;;7.27;5.43;;;7.90;99.90;;;;;;6253708;28;20478;-65
2021/10/12 05:44:36;;;;;;;6.47;5.57;;;7.90;99.90;;;;;;6260045;28;20473;-64
2021/10/12 05:47:39;;;;;;;6.30;5.60;;;8.00;99.90;;;;;;6247550;28;20475;-64
2021/10/12 05:50:43;;;;;;;5.80;5.20;;;8.00;99.90;;;;;;6239819;28;20522;-64
2021/10/12 05:53:49;;;;;;;6.33;4.93;;;8.00;99.90;;;;;;6244902;28;20483;-64
2021/10/12 05:56:56;;;;;;;6.77;5.53;;;8.10;99.90;;;;;;6238617;28;20479;-63
2021/10/12 05:59:59;;;;;;;6.37;5.67;;;8.20;99.90;;;;;;6242297;28;20959;-63
2021/10/12 06:03:02;;;;;;;6.13;5.53;;;8.30;99.90;;;;;;6239924;28;20967;-63
2021/10/12 06:06:06;;;;;;;6.37;5.77;;;8.50;99.90;;;;;;6260735;28;20475;-65
2021/10/12 06:09:10;;;;;;;9.70;5.40;;;8.60;99.90;;;;;;6262729;28;20996;-63
2021/10/12 06:12:14;;;;;;;6.30;5.33;;;8.80;99.90;;;;;;6271364;28;20774;-63
2021/10/12 06:15:18;;;;;;;7.13;5.03;;;8.90;99.90;;;;;;6278440;28;20474;-63
2021/10/12 06:18:21;;;;;;;11.37;4.83;;;9.10;99.90;;;;;;6278934;28;20481;-63
2021/10/12 06:21:24;;;;;;;6.43;4.27;;;9.30;99.90;;;;;;6278149;28;20482;-63
2021/10/12 06:24:28;;;;;;;8.10;6.10;;;9.50;99.90;;;;;;6279034;28;20476;-63
2021/10/12 06:27:32;;;;;;;8.53;5.90;;;9.60;99.90;;;;;;6275550;28;20467;-64
2021/10/12 06:30:35;;;;;;;6.47;5.77;;;9.70;99.90;;;;;;6265651;28;20481;-64
2021/10/12 06:33:39;;;;;;;6.57;5.70;;;9.80;99.90;;;;;;6265499;28;20478;-64
2021/10/12 06:36:42;;;;;;;8.00;5.70;;;9.80;99.90;;;;;;6264944;28;20477;-64
2021/10/12 06:39:45;;;;;;;11.27;6.40;;;9.90;99.90;;;;;;6265889;28;20798;-64
2021/10/12 06:42:50;;;;;;;9.60;6.00;;;9.90;99.90;;;;;;6254466;28;20470;-64
2021/10/12 06:45:53;;;;;;;9.53;6.87;;;10.00;99.90;;;;;;6261703;28;20463;-63
2021/10/12 06:48:56;;;;;;;9.67;6.30;;;10.10;99.90;;;;;;6266458;28;20527;-63
2021/10/12 06:52:00;;;;;;;7.87;6.40;;;10.20;99.90;;;;;;6277751;28;20485;-63
2021/10/12 06:55:03;;;;;;;8.77;6.40;;;10.30;99.90;;;;;;6277874;28;20969;-63
2021/10/12 06:58:09;;;;;;;8.50;7.40;;;10.30;99.90;;;;;;6277697;28;20466;-63
2021/10/12 07:01:12;;;;;;;10.30;8.50;;;10.00;99.90;;;;;;6277810;28;20474;-63
2021/10/12 07:04:16;;;;;;;9.37;8.00;;;9.90;99.90;;;;;;6277750;28;20973;-63
2021/10/12 07:07:19;;;;;;;11.40;9.47;;;10.00;99.90;;;;;;6277352;28;20795;-63
2021/10/12 07:10:22;;;;;;;10.97;8.80;;;10.00;99.90;;;;;;6277121;28;20485;-64
2021/10/12 07:13:29;;;;;;;10.83;9.50;;;10.00;99.90;;;;;;6277650;28;20486;-63
2021/10/12 07:16:32;;;;;;;13.00;9.27;;;10.00;99.90;;;;;;6277423;28;20478;-63
2021/10/12 07:19:35;;;;;;;14.73;9.87;;;10.00;99.90;;;;;;6277453;28;20478;-64
2021/10/12 07:22:39;;;;;;;14.90;9.80;;;9.80;99.90;;;;;;6276398;28;20785;-64
2021/10/12 07:25:42;;;;;;;11.20;9.73;;;9.80;99.90;;;;;;6276629;28;20466;-65
2021/10/12 07:28:46;;;;;;;15.50;9.53;;;9.70;99.90;;;;;;6276363;28;20789;-66
2021/10/12 07:31:49;;;;;;;11.40;10.00;;;9.80;99.90;;;;;;6276250;28;20482;-65
2021/10/12 07:34:53;;;;;;;10.30;9.40;;;9.80;99.90;;;;;;6263544;28;20482;-65
2021/10/12 07:37:56;;;;;;;11.10;9.83;;;9.70;99.90;;;;;;6264736;28;20466;-65
2021/10/12 07:41:00;;;;;;;11.37;9.90;;;9.80;99.90;;;;;;6264358;28;20541;-64
2021/10/12 07:44:09;;;;;;;15.27;9.70;;;9.90;99.90;;;;;;6260662;28;20438;-65
2021/10/12 07:47:13;;;;;;;10.97;9.93;;;9.90;99.90;;;;;;6262154;28;20435;-66
2021/10/12 07:50:16;;;;;;;10.57;9.47;;;10.00;99.90;;;;;;6263616;28;20899;-65
2021/10/12 07:53:20;;;;;;;10.80;9.50;;;10.10;99.90;;;;;;6261854;28;20455;-65
2021/10/12 07:56:35;;;;;;;10.47;9.47;;;10.20;99.90;;;;;;6262072;28;20825;-66
2021/10/12 07:59:40;;;;;;;12.27;10.50;;;10.20;99.90;;;;;;6264297;28;20467;-66
2021/10/12 08:02:43;;;;;;;13.20;10.50;;;10.30;99.90;;;;;;6248610;28;20475;-65
2021/10/12 08:05:47;;;;;;;12.90;9.47;;;10.40;99.90;;;;;;6243893;28;20479;-66
2021/10/12 08:08:50;;;;;;;16.33;10.33;;;10.40;99.90;;;;;;6226676;28;20557;-65
2021/10/12 08:11:53;;;;;;;13.07;9.77;;;10.50;99.90;;;;;;6243716;28;20481;-67
2021/10/12 08:15:00;;;;;;;11.70;9.27;;;10.50;99.90;;;;;;6250803;28;20470;-66
2021/10/12 08:18:03;;;;;;;17.00;10.60;;;10.50;99.90;;;;;;6250369;28;20840;-65
2021/10/12 08:21:07;;;;;;;11.53;9.80;;;10.60;99.90;;;;;;6226560;28;20486;-67
2021/10/12 08:24:11;;;;;;;16.20;10.80;;;10.70;99.90;;;;;;6226043;28;20468;-66
2021/10/12 08:27:14;;;;;;;16.70;10.33;;;10.70;99.90;;;;;;6225760;28;20476;-67
2021/10/12 08:30:19;;;;;;;13.90;9.33;;;10.70;99.90;;;;;;6225975;28;20843;-66
2021/10/12 08:33:22;;;;;;;15.80;11.27;;;10.80;99.90;;;;;;6225910;28;20479;-65
2021/10/12 08:36:25;;;;;;;12.17;9.07;;;10.90;99.90;;;;;;6234590;28;20479;-67
2021/10/12 08:39:44;;;;;;;15.30;10.60;;;10.90;99.90;;;;;;6250282;28;20494;-66
2021/10/12 08:42:49;;;;;;;12.93;9.67;;;10.70;99.90;;;;;;6250018;28;20977;-64
2021/10/12 08:45:54;;;;;;;14.70;11.60;;;10.60;99.90;;;;;;6250387;28;20483;-65
2021/10/12 08:48:58;;;;;;;14.83;9.77;;;10.40;99.90;;;;;;6245554;28;20823;-66
2021/10/12 08:52:03;;;;;;;11.53;9.83;;;10.30;99.90;;;;;;6249863;28;20489;-68
2021/10/12 08:55:07;;;;;;;12.77;10.60;;;10.40;99.90;;;;;;6250033;28;20463;-67
2021/10/12 08:58:11;;;;;;;15.97;10.63;;;10.40;99.90;;;;;;6249899;28;20470;-67
2021/10/12 09:01:17;;;;;;;18.03;11.80;;;10.50;99.90;;;;;;6250027;28;20955;-67
2021/10/12 09:04:21;;;;;;;13.40;12.00;;;10.50;99.90;;;;;;6246892;28;20475;-66
2021/10/12 09:07:25;;;;;;;15.70;12.87;;;10.50;99.90;;;;;;6239985;28;20486;-66
2021/10/12 09:10:30;;;;;;;12.67;11.27;;;10.60;99.90;;;;;;6224931;28;20983;-65
2021/10/12 09:13:44;;;;;;;15.87;11.60;;;10.60;99.90;;;;;;6225447;28;20472;-65
2021/10/12 09:16:49;;;;;;;16.60;12.13;;;10.70;99.90;;;;;;6225452;28;20495;-64
2021/10/12 09:19:52;;;;;;;16.80;11.87;;;10.70;99.90;;;;;;6224668;28;21004;-64
2021/10/12 09:23:07;;;;;;;14.27;11.27;;;10.70;99.90;;;;;;6225342;28;20484;-64
2021/10/12 09:26:19;;;;;;;16.50;11.83;;;10.60;99.90;;;;;;6224664;28;20811;-64
2021/10/12 09:29:24;;;;;;;13.10;10.40;;;10.50;99.90;;;;;;6224890;28;20466;-65
2021/10/12 09:32:36;;;;;;;14.90;12.00;;;10.40;99.90;;;;;;6225281;28;20478;-65
2021/10/12 09:35:39;;;;;;;15.43;11.00;;;10.40;99.90;;;;;;6225593;28;20483;-64
2021/10/12 09:38:46;;;;;;;12.63;10.80;;;10.40;99.90;;;;;;6259823;28;20470;-64
2021/10/12 09:41:57;;;;;;;14.33;10.40;;;10.50;99.90;;;;;;6274241;28;20477;-65
2021/10/12 09:45:01;;;;;;;17.80;10.70;;;10.50;99.90;;;;;;6274491;28;20547;-64
2021/10/12 09:48:28;;;;;;;15.33;12.20;;;10.70;99.90;;;;;;6262583;28;20481;-63
2021/10/12 09:51:31;;;;;;;17.10;11.63;;;10.90;99.90;;;;;;6220860;28;20956;-63
2021/10/12 09:54:36;;;;;;;12.07;10.87;;;11.00;99.90;;;;;;6226439;28;20479;-64
2021/10/12 09:57:40;;;;;;;11.80;10.60;;;11.20;99.90;;;;;;6258497;28;20486;-65
2021/10/12 10:00:44;;;;;;;12.00;10.70;;;11.30;99.90;;;;;;6278726;28;20478;-64
2021/10/12 10:03:49;;;;;;;12.70;9.83;;;11.40;99.90;;;;;;6270150;28;20620;-68
2021/10/12 10:06:53;;;;;;;15.73;10.57;;;11.50;99.90;;;;;;6278370;28;20470;-63
2021/10/12 10:09:57;;;;;;;13.27;9.90;;;11.50;99.90;;;;;;6273675;28;20470;-64
2021/10/12 10:13:01;;;;;;;12.77;11.17;;;11.60;99.90;;;;;;6257906;28;20487;-64
2021/10/12 10:16:08;;;;;;;15.27;10.73;;;11.60;99.90;;;;;;6241944;28;20471;-64
2021/10/12 10:19:17;;;;;;;18.50;11.40;;;11.70;99.90;;;;;;6240920;28;20472;-64
2021/10/12 10:22:43;;;;;;;18.03;11.73;;;11.80;99.90;;;;;;6226964;28;20476;-64
2021/10/12 10:25:51;;;;;;;14.20;10.90;;;12.00;99.90;;;;;;6227078;28;20467;-65
2021/10/12 10:28:55;;;;;;;13.40;10.83;;;12.10;99.90;;;;;;6226811;28;20475;-64
2021/10/12 10:32:00;;;;;;;14.87;10.83;;;12.10;99.90;;;;;;6228228;28;20479;-63
2021/10/12 10:35:12;;;;;;;13.63;10.90;;;12.10;99.90;;;;;;6235144;28;20428;-65
2021/10/12 10:38:33;;;;;;;10.10;9.00;;;12.30;99.90;;;;;;6242112;28;20471;-65
2021/10/12 10:41:39;;;;;;;12.60;10.17;;;12.40;99.90;;;;;;6244465;28;20958;-65
2021/10/12 10:44:54;;;;;;;11.17;9.27;;;12.40;99.90;;;;;;6251994;28;20467;-65
2021/10/12 10:48:04;;;;;;;20.80;10.50;;;12.40;99.90;;;;;;6252917;28;20475;-65
2021/10/12 10:51:22;;;;;;;11.77;9.13;;;12.30;99.90;;;;;;6252781;28;20815;-64
2021/10/12 10:55:04;;;;;;;11.30;10.27;;;12.30;99.70;;;;;;6261824;28;20763;-64
2021/10/12 10:58:14;;;;;;;15.60;9.67;;;12.30;99.90;;;;;;6256143;28;20475;-64
2021/10/12 11:01:36;;;;;;;14.30;9.97;;;12.20;99.90;;;;;;6268769;28;20474;-65
2021/10/12 11:04:43;;;;;;;15.47;10.50;;;12.30;99.90;;;;;;6252700;28;20546;-65
2021/10/12 11:07:47;;;;;;;12.50;9.40;;;12.40;99.90;;;;;;6251276;28;20470;-65
2021/10/12 11:10:56;;;;;;;13.03;9.43;;;12.50;99.90;;;;;;6240234;28;20487;-65
2021/10/12 11:13:59;;;;;;;11.20;9.03;;;12.60;99.80;;;;;;6230168;28;20487;-65
2021/10/12 11:17:10;;;;;;;12.73;8.93;;;12.70;99.20;;;;;;6267982;28;20493;-68
2021/10/12 11:20:14;;;;;;;16.90;10.93;;;12.80;99.00;;;;;;6276396;28;20452;-64
2021/10/12 11:23:25;;;;;;;16.03;9.17;;;13.00;99.00;;;;;;6276877;28;20450;-63
2021/10/12 11:26:31;;;;;;;13.10;8.90;;;13.20;98.60;;;;;;6276944;28;20473;-62
2021/10/12 11:29:34;;;;;;;9.43;8.53;;;13.50;98.30;;;;;;6276759;28;20508;-63
2021/10/12 11:32:37;;;;;;;11.03;8.50;;;13.70;96.80;;;;;;6276628;28;20481;-63
2021/10/12 11:35:42;;;;;;;16.50;9.07;;;13.90;96.20;;;;;;6273422;28;20485;-62
2021/10/12 11:38:50;;;;;;;11.40;8.33;;;14.00;95.90;;;;;;6251957;28;20471;-63
2021/10/12 11:42:00;;;;;;;13.70;9.70;;;14.30;95.60;;;;;;6251810;28;20490;-64
2021/10/12 11:45:04;;;;;;;11.57;7.97;;;14.50;95.10;;;;;;6251726;28;20471;-67
2021/10/12 11:48:19;;;;;;;11.20;7.40;;;14.70;94.50;;;;;;6252026;28;20562;-65
2021/10/12 11:51:24;;;;;;;10.93;7.50;;;15.00;94.20;;;;;;6251250;28;20486;-66
2021/10/12 11:54:29;;;;;;;10.87;7.67;;;15.40;93.00;;;;;;6251488;28;20482;-64
2021/10/12 11:57:32;;;;;;;10.23;8.03;;;15.80;91.80;;;;;;6251290;28;20498;-63
2021/10/12 12:00:37;;;;;;;10.70;7.60;;;16.00;90.80;;;;;;6242387;28;20502;-66
2021/10/12 12:03:41;;;;;;;11.87;8.27;;;15.90;90.50;;;;;;6240435;28;20491;-66
2021/10/12 12:06:45;;;;;;;7.97;7.10;;;15.70;90.40;;;;;;6249822;28;20475;-67
2021/10/12 12:09:50;;;;;;;9.53;7.90;;;15.60;90.70;;;;;;6247008;28;20472;-67
2021/10/12 12:12:53;;;;;;;12.80;7.83;;;15.80;91.10;;;;;;6242298;28;20490;-67
2021/10/12 12:15:57;;;;;;;11.67;7.30;;;15.80;90.40;;;;;;6249896;28;20466;-67
2021/10/12 12:19:01;;;;;;;13.17;9.03;;;15.70;90.50;;;;;;6250248;28;20498;-65
2021/10/12 12:22:13;;;;;;;8.73;7.37;;;15.80;90.40;;;;;;6227273;28;20479;-67
2021/10/12 12:25:21;;;;;;;11.97;7.37;;;15.60;90.60;;;;;;6226611;28;20856;-68
2021/10/12 12:28:25;;;;;;;9.83;7.40;;;15.50;89.70;;;;;;6226347;28;20467;-68
2021/10/12 12:31:29;;;;;;;9.13;7.93;;;15.50;90.20;;;;;;6225481;28;20991;-68
2021/10/12 12:34:34;;;;;;;10.47;7.00;;;15.40;89.80;;;;;;6226316;28;20472;-68
2021/10/12 12:37:38;;;;;;;9.23;7.03;;;15.40;89.50;;;;;;6241618;28;20883;-68
2021/10/12 12:40:46;;;;;;;10.13;7.03;;;15.20;89.40;;;;;;6261723;28;20507;-68
2021/10/12 12:43:57;;;;;;;8.43;7.47;;;15.10;90.20;;;;;;6262157;28;21075;-67
2021/10/12 12:47:02;;;;;;;10.23;6.63;;;15.00;90.50;;;;;;6275236;28;20482;-66
2021/10/12 12:50:12;;;;;;;8.77;7.07;;;15.00;90.80;;;;;;6250706;28;20934;-66
2021/10/12 12:53:40;;;;;;;8.30;7.03;;;15.00;90.90;;;;;;6250403;28;20481;-66
2021/10/12 12:56:44;;;;;;;11.10;6.20;;;15.00;90.90;;;;;;6250465;28;20467;-68
2021/10/12 13:00:00;;;;;;;9.93;7.23;;;14.90;90.60;;;;;;6250509;28;20984;-64
2021/10/12 13:03:05;;;;;;;13.87;7.67;;;14.90;90.70;;;;;;6247704;28;21012;-65
2021/10/12 13:06:09;;;;;;;10.13;6.50;;;14.80;90.80;;;;;;6274735;28;20481;-67
2021/10/12 13:09:12;;;;;;;9.97;5.47;;;14.80;91.00;;;;;;6274606;28;20830;-63
2021/10/12 13:12:21;;;;;;;8.40;5.60;;;14.80;90.60;;;;;;6235493;28;20475;-63
2021/10/12 13:15:24;;;;;;;9.27;5.40;;;14.80;90.80;;;;;;6225534;28;20472;-65
2021/10/12 13:18:28;;;;;;;6.87;5.80;;;14.80;90.90;;;;;;6225912;28;20480;-65
2021/10/12 13:21:31;;;;;;;8.83;7.93;;;14.80;90.80;;;;;;6224988;28;20948;-65
2021/10/12 13:24:34;;;;;;;12.10;7.30;;;14.80;90.70;;;;;;6225071;28;20479;-64
2021/10/12 13:27:38;;;;;;;8.07;6.10;;;14.80;90.60;;;;;;6224796;28;20467;-64
2021/10/12 13:30:43;;;;;;;9.10;5.50;;;15.00;90.60;;;;;;6227881;28;20476;-65
2021/10/12 13:33:46;;;;;;;6.70;5.77;;;15.00;90.50;;;;;;6229459;28;20475;-66
2021/10/12 13:36:49;;;;;;;7.60;4.87;;;14.90;89.30;;;;;;6229723;28;20476;-63
2021/10/12 13:39:53;;;;;;;8.47;5.80;;;14.80;89.10;;;;;;6229553;28;20479;-64
2021/10/12 13:42:57;;;;;;;7.80;5.83;;;14.80;90.00;;;;;;6229449;28;20537;-64
2021/10/12 13:46:00;;;;;;;10.60;6.50;;;14.80;90.00;;;;;;6229540;28;20486;-63
2021/10/12 13:49:04;;;;;;;6.10;5.50;;;14.80;90.00;;;;;;6229288;28;20467;-63
2021/10/12 13:52:07;;;;;;;5.57;5.07;;;14.80;90.00;;;;;;6228513;28;20817;-63
2021/10/12 13:55:11;;;;;;;6.10;5.50;;;14.90;90.00;;;;;;6229072;28;20474;-63
2021/10/12 13:58:15;;;;;;;11.83;5.00;;;14.80;89.10;;;;;;6229366;28;20487;-64
2021/10/12 14:01:18;;;;;;;8.20;6.30;;;14.80;88.90;;;;;;6228801;28;20817;-64
2021/10/12 14:04:22;;;;;;;13.57;7.37;;;14.80;89.10;;;;;;6246507;28;20676;-64
2021/10/12 14:07:25;;;;;;;6.63;5.50;;;14.80;89.40;;;;;;6249017;28;20973;-64
2021/10/12 14:10:28;;;;;;;6.40;5.80;;;14.90;89.50;;;;;;6245343;28;20479;-63
2021/10/12 14:13:33;;;;;;;16.10;6.20;;;14.90;88.20;;;;;;6253271;28;20471;-64
2021/10/12 14:16:39;;;;;;;6.57;5.73;;;14.80;88.40;;;;;;6253105;28;20963;-66
2021/10/12 14:19:42;;;;;;;7.43;6.13;;;14.80;86.60;;;;;;6253393;28;20828;-67
2021/10/12 14:22:48;;;;;;;7.53;5.23;;;14.90;86.10;;;;;;6253125;28;20475;-64
2021/10/12 14:25:52;;;;;;;6.07;5.17;;;15.00;85.40;;;;;;6253160;28;20475;-64
2021/10/12 14:28:56;;;;;;;4.90;4.00;;;15.00;85.90;;;;;;6253269;28;20478;-63
2021/10/12 14:32:00;;;;;;;5.20;4.70;;;15.10;85.00;;;;;;6253198;28;20471;-63
2021/10/12 14:35:04;;;;;;;7.17;4.10;;;15.20;84.00;;;;;;6252670;28;20479;-63
2021/10/12 14:38:07;;;;;;;5.23;4.73;;;15.30;83.80;;;;;;6253895;28;20470;-63
2021/10/12 14:41:11;;;;;;;4.37;4.00;;;15.30;82.70;;;;;;6252877;28;20475;-64
2021/10/12 14:44:15;;;;;;;5.90;4.80;;;15.30;82.90;;;;;;6253131;28;20442;-64
2021/10/12 14:47:19;;;;;;;8.10;5.77;;;15.20;82.90;;;;;;6252551;28;20458;-64
2021/10/12 14:50:22;;;;;;;5.70;4.90;;;15.10;83.40;;;;;;6252762;28;20446;-64
2021/10/12 14:53:26;;;;;;;5.77;4.23;;;15.00;83.50;;;;;;6252439;28;20951;-64
2021/10/12 14:56:29;;;;;;;6.93;4.53;;;15.00;82.80;;;;;;6252256;28;20467;-64
2021/10/12 14:59:35;;;;;;;7.60;5.17;;;15.00;83.10;;;;;;6252128;28;20467;-64
2021/10/12 15:02:39;;;;;;;6.97;5.33;;;14.90;84.00;;;;;;6248003;28;21002;-63
2021/10/12 15:05:42;;;;;;;6.13;4.50;;;14.90;84.40;;;;;;6252340;28;20564;-63
2021/10/12 15:08:46;;;;;;;5.87;5.00;;;14.70;84.30;;;;;;6251778;28;20459;-63
2021/10/12 15:11:49;;;;;;;4.83;4.33;;;14.60;84.60;;;;;;6243832;28;20467;-64
2021/10/12 15:14:54;;;;;;;6.70;5.40;;;14.50;84.90;;;;;;6252163;28;20986;-64
2021/10/12 15:17:57;;;;;;;7.83;6.17;;;14.50;86.00;;;;;;6251953;28;20471;-64
2021/10/12 15:21:00;;;;;;;10.50;4.80;;;14.40;87.00;;;;;;6251399;28;20971;-64
2021/10/12 15:24:03;;;;;;;5.70;4.57;;;14.20;88.00;;;;;;6251785;28;20478;-64
2021/10/12 15:27:07;;;;;;;8.37;4.97;;;14.10;88.50;;;;;;6251870;28;20481;-63
2021/10/12 15:30:12;;;;;;;5.53;4.50;;;14.00;88.90;;;;;;6251829;28;20486;-63
2021/10/12 15:33:15;;;;;;;7.57;4.63;;;14.00;88.90;;;;;;6269358;28;20462;-64
2021/10/12 15:36:18;;;;;;;6.13;4.47;;;13.80;88.60;;;;;;6276158;28;20945;-65
2021/10/12 15:39:24;;;;;;;7.90;4.13;;;13.70;88.80;;;;;;6276479;28;20493;-66
2021/10/12 15:42:27;;;;;;;5.13;4.37;;;13.70;89.40;;;;;;6274723;28;20942;-66
2021/10/12 15:45:32;;;;;;;8.50;4.23;;;13.60;89.40;;;;;;6274790;28;20795;-64
2021/10/12 15:48:35;;;;;;;7.03;4.23;;;13.60;89.60;;;;;;6274572;28;20470;-66
2021/10/12 15:51:38;;;;;;;10.03;5.17;;;13.40;89.80;;;;;;6274000;28;20486;-66
2021/10/12 15:54:44;;;;;;;6.67;4.60;;;13.40;90.10;;;;;;6275014;28;20538;-67
2021/10/12 15:57:47;;;;;;;5.63;4.47;;;13.30;90.40;;;;;;6275496;28;20769;-68
2021/10/12 16:00:52;;;;;;;7.30;5.40;;;13.30;90.70;;;;;;6274919;28;20799;-65